sensor_id;sensor_type;location;lat;lon;timestamp;P1;durP1;ratioP1;P2;durP2;ratioP2
39044;SDS011;52192;52.002;5.956;2024-01-30T00:02:06;3.45;;;2.15;;
39044;SDS011;52192;52.002;5.956;2024-01-30T00:04:31;3.30;;;2.22;;
39044;SDS011;52192;52.002;5.956;2024-01-30T00:06:57;3.88;;;2.15;;
39044;SDS011;52192;52.002;5.956;2024-01-30T00:09:23;2.90;;;2.10;;
39044;SDS011;52192;52.002;5.956;2024-01-30T00:11:48;4.03;;;2.35;;
39044;SDS011;52192;52.002;5.956;2024-01-30T00:14:14;3.63;;;1.85;;
39044;SDS011;52192;52.002;5.956;2024-01-30T00:16:40;3.63;;;2.65;;
39044;SDS011;52192;52.002;5.956;2024-01-30T00:19:05;3.80;;;2.33;;
39044;SDS011;52192;52.002;5.956;2024-01-30T00:21:33;4.05;;;2.25;;
39044;SDS011;52192;52.002;5.956;2024-01-30T00:23:59;4.00;;;2.08;;
39044;SDS011;52192;52.002;5.956;2024-01-30T00:26:25;4.10;;;2.70;;
39044;SDS011;52192;52.002;5.956;2024-01-30T00:28:50;3.67;;;2.35;;
39044;SDS011;52192;52.002;5.956;2024-01-30T00:31:16;3.65;;;2.00;;
39044;SDS011;52192;52.002;5.956;2024-01-30T00:33:42;4.10;;;2.42;;
39044;SDS011;52192;52.002;5.956;2024-01-30T00:36:08;7.05;;;2.38;;
39044;SDS011;52192;52.002;5.956;2024-01-30T00:38:34;5.50;;;2.45;;
39044;SDS011;52192;52.002;5.956;2024-01-30T00:41:00;6.10;;;2.28;;
39044;SDS011;52192;52.002;5.956;2024-01-30T00:43:27;3.95;;;2.50;;
39044;SDS011;52192;52.002;5.956;2024-01-30T00:45:53;5.53;;;2.80;;
39044;SDS011;52192;52.002;5.956;2024-01-30T00:48:19;2.45;;;1.80;;
39044;SDS011;52192;52.002;5.956;2024-01-30T00:50:45;3.83;;;1.98;;
39044;SDS011;52192;52.002;5.956;2024-01-30T00:53:10;5.07;;;2.75;;
39044;SDS011;52192;52.002;5.956;2024-01-30T00:55:36;5.88;;;2.42;;
39044;SDS011;52192;52.002;5.956;2024-01-30T00:58:02;3.03;;;1.90;;
39044;SDS011;52192;52.002;5.956;2024-01-30T01:00:28;3.45;;;2.28;;
39044;SDS011;52192;52.002;5.956;2024-01-30T01:02:57;3.05;;;1.50;;
39044;SDS011;52192;52.002;5.956;2024-01-30T01:05:24;3.70;;;2.13;;
39044;SDS011;52192;52.002;5.956;2024-01-30T01:07:50;4.70;;;2.28;;
39044;SDS011;52192;52.002;5.956;2024-01-30T01:10:16;2.78;;;2.33;;
39044;SDS011;52192;52.002;5.956;2024-01-30T01:12:43;3.70;;;2.10;;
39044;SDS011;52192;52.002;5.956;2024-01-30T01:15:09;2.50;;;1.90;;
39044;SDS011;52192;52.002;5.956;2024-01-30T01:17:35;3.42;;;2.28;;
39044;SDS011;52192;52.002;5.956;2024-01-30T01:20:02;4.55;;;2.47;;
39044;SDS011;52192;52.002;5.956;2024-01-30T01:22:29;3.53;;;1.98;;
39044;SDS011;52192;52.002;5.956;2024-01-30T01:24:55;3.33;;;2.08;;
39044;SDS011;52192;52.002;5.956;2024-01-30T01:27:21;6.68;;;2.85;;
39044;SDS011;52192;52.002;5.956;2024-01-30T01:29:47;3.55;;;1.83;;
39044;SDS011;52192;52.002;5.956;2024-01-30T01:32:12;2.95;;;2.28;;
39044;SDS011;52192;52.002;5.956;2024-01-30T01:34:38;5.70;;;2.15;;
39044;SDS011;52192;52.002;5.956;2024-01-30T01:37:04;3.83;;;2.28;;
39044;SDS011;52192;52.002;5.956;2024-01-30T01:39:29;6.63;;;2.70;;
39044;SDS011;52192;52.002;5.956;2024-01-30T01:41:55;5.43;;;2.40;;
39044;SDS011;52192;52.002;5.956;2024-01-30T01:44:21;4.53;;;2.67;;
39044;SDS011;52192;52.002;5.956;2024-01-30T01:46:46;2.85;;;2.00;;
39044;SDS011;52192;52.002;5.956;2024-01-30T01:49:13;3.25;;;2.22;;
39044;SDS011;52192;52.002;5.956;2024-01-30T01:51:39;3.85;;;2.33;;
39044;SDS011;52192;52.002;5.956;2024-01-30T01:54:07;6.22;;;2.38;;
39044;SDS011;52192;52.002;5.956;2024-01-30T01:56:33;2.25;;;1.80;;
39044;SDS011;52192;52.002;5.956;2024-01-30T01:59:04;4.13;;;2.28;;
39044;SDS011;52192;52.002;5.956;2024-01-30T02:01:35;2.67;;;1.85;;
39044;SDS011;52192;52.002;5.956;2024-01-30T02:04:02;3.78;;;2.28;;
39044;SDS011;52192;52.002;5.956;2024-01-30T02:06:27;4.88;;;2.50;;
39044;SDS011;52192;52.002;5.956;2024-01-30T02:08:54;4.13;;;2.20;;
39044;SDS011;52192;52.002;5.956;2024-01-30T02:11:20;2.95;;;1.88;;
39044;SDS011;52192;52.002;5.956;2024-01-30T02:13:47;3.25;;;1.90;;
39044;SDS011;52192;52.002;5.956;2024-01-30T02:16:13;4.32;;;2.40;;
39044;SDS011;52192;52.002;5.956;2024-01-30T02:18:39;3.30;;;2.08;;
39044;SDS011;52192;52.002;5.956;2024-01-30T02:21:10;3.97;;;2.45;;
39044;SDS011;52192;52.002;5.956;2024-01-30T02:23:36;3.53;;;2.22;;
39044;SDS011;52192;52.002;5.956;2024-01-30T02:26:03;3.88;;;2.08;;
39044;SDS011;52192;52.002;5.956;2024-01-30T02:28:28;2.85;;;1.88;;
39044;SDS011;52192;52.002;5.956;2024-01-30T02:30:54;3.55;;;2.67;;
39044;SDS011;52192;52.002;5.956;2024-01-30T02:33:20;3.83;;;2.05;;
39044;SDS011;52192;52.002;5.956;2024-01-30T02:35:47;2.63;;;1.98;;
39044;SDS011;52192;52.002;5.956;2024-01-30T02:38:13;3.40;;;1.67;;
39044;SDS011;52192;52.002;5.956;2024-01-30T02:40:40;3.22;;;2.25;;
39044;SDS011;52192;52.002;5.956;2024-01-30T02:43:06;4.80;;;2.47;;
39044;SDS011;52192;52.002;5.956;2024-01-30T02:45:31;3.03;;;2.72;;
39044;SDS011;52192;52.002;5.956;2024-01-30T02:47:57;4.38;;;2.10;;
39044;SDS011;52192;52.002;5.956;2024-01-30T02:50:23;7.00;;;2.83;;
39044;SDS011;52192;52.002;5.956;2024-01-30T02:52:49;3.97;;;2.33;;
39044;SDS011;52192;52.002;5.956;2024-01-30T02:55:15;4.40;;;2.42;;
39044;SDS011;52192;52.002;5.956;2024-01-30T02:57:43;3.45;;;2.00;;
39044;SDS011;52192;52.002;5.956;2024-01-30T03:00:09;4.55;;;2.45;;
39044;SDS011;52192;52.002;5.956;2024-01-30T03:02:35;3.15;;;1.67;;
39044;SDS011;52192;52.002;5.956;2024-01-30T03:05:02;6.20;;;2.72;;
39044;SDS011;52192;52.002;5.956;2024-01-30T03:07:31;4.13;;;1.80;;
39044;SDS011;52192;52.002;5.956;2024-01-30T03:09:56;3.53;;;2.45;;
39044;SDS011;52192;52.002;5.956;2024-01-30T03:12:22;3.35;;;2.35;;
39044;SDS011;52192;52.002;5.956;2024-01-30T03:14:48;4.28;;;2.30;;
39044;SDS011;52192;52.002;5.956;2024-01-30T03:17:14;3.75;;;2.33;;
39044;SDS011;52192;52.002;5.956;2024-01-30T03:19:40;3.88;;;2.00;;
39044;SDS011;52192;52.002;5.956;2024-01-30T03:22:06;3.88;;;2.17;;
39044;SDS011;52192;52.002;5.956;2024-01-30T03:24:32;6.55;;;2.03;;
39044;SDS011;52192;52.002;5.956;2024-01-30T03:26:58;3.30;;;1.90;;
39044;SDS011;52192;52.002;5.956;2024-01-30T03:29:24;3.83;;;2.10;;
39044;SDS011;52192;52.002;5.956;2024-01-30T03:31:49;3.63;;;2.25;;
39044;SDS011;52192;52.002;5.956;2024-01-30T03:34:15;3.35;;;1.98;;
39044;SDS011;52192;52.002;5.956;2024-01-30T03:36:41;4.05;;;2.05;;
39044;SDS011;52192;52.002;5.956;2024-01-30T03:39:07;4.93;;;2.00;;
39044;SDS011;52192;52.002;5.956;2024-01-30T03:41:33;4.78;;;2.38;;
39044;SDS011;52192;52.002;5.956;2024-01-30T03:43:58;2.47;;;1.98;;
39044;SDS011;52192;52.002;5.956;2024-01-30T03:46:24;1.83;;;1.60;;
39044;SDS011;52192;52.002;5.956;2024-01-30T03:48:50;3.30;;;1.70;;
39044;SDS011;52192;52.002;5.956;2024-01-30T03:51:16;2.85;;;1.60;;
39044;SDS011;52192;52.002;5.956;2024-01-30T03:53:42;2.97;;;2.30;;
39044;SDS011;52192;52.002;5.956;2024-01-30T03:56:08;5.72;;;2.33;;
39044;SDS011;52192;52.002;5.956;2024-01-30T03:58:34;3.90;;;2.38;;
39044;SDS011;52192;52.002;5.956;2024-01-30T04:01:00;3.65;;;2.38;;
39044;SDS011;52192;52.002;5.956;2024-01-30T04:03:26;2.92;;;1.73;;
39044;SDS011;52192;52.002;5.956;2024-01-30T04:05:52;4.40;;;1.90;;
39044;SDS011;52192;52.002;5.956;2024-01-30T04:08:18;2.25;;;2.00;;
39044;SDS011;52192;52.002;5.956;2024-01-30T04:10:44;4.68;;;2.40;;
39044;SDS011;52192;52.002;5.956;2024-01-30T04:13:09;2.28;;;1.95;;
39044;SDS011;52192;52.002;5.956;2024-01-30T04:15:35;2.88;;;2.17;;
39044;SDS011;52192;52.002;5.956;2024-01-30T04:18:01;3.92;;;2.10;;
39044;SDS011;52192;52.002;5.956;2024-01-30T04:20:27;4.13;;;2.20;;
39044;SDS011;52192;52.002;5.956;2024-01-30T04:22:53;4.20;;;2.17;;
39044;SDS011;52192;52.002;5.956;2024-01-30T04:25:19;1.70;;;1.38;;
39044;SDS011;52192;52.002;5.956;2024-01-30T04:27:44;5.82;;;2.80;;
39044;SDS011;52192;52.002;5.956;2024-01-30T04:30:10;3.75;;;2.10;;
39044;SDS011;52192;52.002;5.956;2024-01-30T04:32:36;2.17;;;1.42;;
39044;SDS011;52192;52.002;5.956;2024-01-30T04:35:02;2.80;;;1.88;;
39044;SDS011;52192;52.002;5.956;2024-01-30T04:37:28;4.05;;;1.77;;
39044;SDS011;52192;52.002;5.956;2024-01-30T04:39:54;3.33;;;1.83;;
39044;SDS011;52192;52.002;5.956;2024-01-30T04:42:20;3.50;;;2.13;;
39044;SDS011;52192;52.002;5.956;2024-01-30T04:44:46;4.13;;;1.77;;
39044;SDS011;52192;52.002;5.956;2024-01-30T04:47:11;2.70;;;1.88;;
39044;SDS011;52192;52.002;5.956;2024-01-30T04:49:40;3.53;;;1.80;;
39044;SDS011;52192;52.002;5.956;2024-01-30T04:52:07;2.58;;;1.33;;
39044;SDS011;52192;52.002;5.956;2024-01-30T04:54:34;1.13;;;1.00;;
39044;SDS011;52192;52.002;5.956;2024-01-30T04:57:00;2.75;;;1.80;;
39044;SDS011;52192;52.002;5.956;2024-01-30T04:59:26;2.22;;;1.63;;
39044;SDS011;52192;52.002;5.956;2024-01-30T05:01:53;3.28;;;1.83;;
39044;SDS011;52192;52.002;5.956;2024-01-30T05:04:19;2.90;;;2.05;;
39044;SDS011;52192;52.002;5.956;2024-01-30T05:06:44;3.72;;;1.73;;
39044;SDS011;52192;52.002;5.956;2024-01-30T05:09:11;2.08;;;1.60;;
39044;SDS011;52192;52.002;5.956;2024-01-30T05:11:40;2.05;;;1.48;;
39044;SDS011;52192;52.002;5.956;2024-01-30T05:14:06;2.65;;;1.90;;
39044;SDS011;52192;52.002;5.956;2024-01-30T05:16:33;1.60;;;1.35;;
39044;SDS011;52192;52.002;5.956;2024-01-30T05:19:00;3.15;;;2.00;;
39044;SDS011;52192;52.002;5.956;2024-01-30T05:21:26;3.88;;;2.10;;
39044;SDS011;52192;52.002;5.956;2024-01-30T05:23:51;4.15;;;1.95;;
39044;SDS011;52192;52.002;5.956;2024-01-30T05:26:17;2.72;;;1.55;;
39044;SDS011;52192;52.002;5.956;2024-01-30T05:28:43;3.35;;;1.70;;
39044;SDS011;52192;52.002;5.956;2024-01-30T05:31:13;4.72;;;2.17;;
39044;SDS011;52192;52.002;5.956;2024-01-30T05:33:39;3.53;;;1.85;;
39044;SDS011;52192;52.002;5.956;2024-01-30T05:36:05;2.85;;;1.85;;
39044;SDS011;52192;52.002;5.956;2024-01-30T05:38:31;3.53;;;1.77;;
39044;SDS011;52192;52.002;5.956;2024-01-30T05:40:57;2.95;;;1.63;;
39044;SDS011;52192;52.002;5.956;2024-01-30T05:43:23;4.82;;;1.58;;
39044;SDS011;52192;52.002;5.956;2024-01-30T05:45:50;3.33;;;1.98;;
39044;SDS011;52192;52.002;5.956;2024-01-30T05:48:17;2.72;;;1.38;;
39044;SDS011;52192;52.002;5.956;2024-01-30T05:50:42;2.22;;;1.58;;
39044;SDS011;52192;52.002;5.956;2024-01-30T05:53:08;2.05;;;1.42;;
39044;SDS011;52192;52.002;5.956;2024-01-30T05:55:34;1.75;;;1.50;;
39044;SDS011;52192;52.002;5.956;2024-01-30T05:58:00;4.43;;;1.95;;
39044;SDS011;52192;52.002;5.956;2024-01-30T06:00:25;1.83;;;1.23;;
39044;SDS011;52192;52.002;5.956;2024-01-30T06:02:51;2.83;;;1.92;;
39044;SDS011;52192;52.002;5.956;2024-01-30T06:05:17;2.83;;;1.73;;
39044;SDS011;52192;52.002;5.956;2024-01-30T06:07:43;2.63;;;1.58;;
39044;SDS011;52192;52.002;5.956;2024-01-30T06:10:08;3.33;;;1.85;;
39044;SDS011;52192;52.002;5.956;2024-01-30T06:12:34;2.80;;;1.50;;
39044;SDS011;52192;52.002;5.956;2024-01-30T06:15:01;2.67;;;1.58;;
39044;SDS011;52192;52.002;5.956;2024-01-30T06:17:26;2.28;;;1.42;;
39044;SDS011;52192;52.002;5.956;2024-01-30T06:19:53;3.20;;;1.65;;
39044;SDS011;52192;52.002;5.956;2024-01-30T06:22:18;6.25;;;1.95;;
39044;SDS011;52192;52.002;5.956;2024-01-30T06:24:44;3.38;;;1.67;;
39044;SDS011;52192;52.002;5.956;2024-01-30T06:27:12;3.45;;;1.98;;
39044;SDS011;52192;52.002;5.956;2024-01-30T06:29:38;2.47;;;1.80;;
39044;SDS011;52192;52.002;5.956;2024-01-30T06:32:05;2.92;;;1.88;;
39044;SDS011;52192;52.002;5.956;2024-01-30T06:34:31;3.88;;;2.10;;
39044;SDS011;52192;52.002;5.956;2024-01-30T06:36:57;2.53;;;1.70;;
39044;SDS011;52192;52.002;5.956;2024-01-30T06:39:22;3.08;;;1.80;;
39044;SDS011;52192;52.002;5.956;2024-01-30T06:41:48;2.60;;;1.70;;
39044;SDS011;52192;52.002;5.956;2024-01-30T06:44:14;2.45;;;1.48;;
39044;SDS011;52192;52.002;5.956;2024-01-30T06:46:40;3.08;;;1.60;;
39044;SDS011;52192;52.002;5.956;2024-01-30T06:49:05;3.83;;;1.77;;
39044;SDS011;52192;52.002;5.956;2024-01-30T06:51:31;3.45;;;1.98;;
39044;SDS011;52192;52.002;5.956;2024-01-30T06:53:57;3.38;;;2.15;;
39044;SDS011;52192;52.002;5.956;2024-01-30T06:56:22;2.55;;;1.85;;
39044;SDS011;52192;52.002;5.956;2024-01-30T06:58:48;3.55;;;1.75;;
39044;SDS011;52192;52.002;5.956;2024-01-30T07:01:17;3.22;;;2.00;;
39044;SDS011;52192;52.002;5.956;2024-01-30T07:03:43;1.88;;;1.67;;
39044;SDS011;52192;52.002;5.956;2024-01-30T07:06:09;2.40;;;1.40;;
39044;SDS011;52192;52.002;5.956;2024-01-30T07:08:37;3.20;;;1.90;;
39044;SDS011;52192;52.002;5.956;2024-01-30T07:11:04;3.30;;;1.73;;
39044;SDS011;52192;52.002;5.956;2024-01-30T07:13:31;2.08;;;1.58;;
39044;SDS011;52192;52.002;5.956;2024-01-30T07:15:57;2.30;;;1.67;;
39044;SDS011;52192;52.002;5.956;2024-01-30T07:18:23;3.70;;;2.00;;
39044;SDS011;52192;52.002;5.956;2024-01-30T07:20:48;2.92;;;2.08;;
39044;SDS011;52192;52.002;5.956;2024-01-30T07:23:15;4.47;;;1.90;;
39044;SDS011;52192;52.002;5.956;2024-01-30T07:25:42;3.00;;;1.70;;
39044;SDS011;52192;52.002;5.956;2024-01-30T07:28:08;2.63;;;1.70;;
39044;SDS011;52192;52.002;5.956;2024-01-30T07:30:35;2.85;;;1.70;;
39044;SDS011;52192;52.002;5.956;2024-01-30T07:33:01;2.65;;;2.03;;
39044;SDS011;52192;52.002;5.956;2024-01-30T07:35:27;3.40;;;1.70;;
39044;SDS011;52192;52.002;5.956;2024-01-30T07:37:53;3.00;;;1.83;;
39044;SDS011;52192;52.002;5.956;2024-01-30T07:40:18;2.17;;;1.40;;
39044;SDS011;52192;52.002;5.956;2024-01-30T07:42:44;2.50;;;1.58;;
39044;SDS011;52192;52.002;5.956;2024-01-30T07:45:10;3.42;;;2.00;;
39044;SDS011;52192;52.002;5.956;2024-01-30T07:47:35;3.63;;;1.90;;
39044;SDS011;52192;52.002;5.956;2024-01-30T07:50:01;1.88;;;1.52;;
39044;SDS011;52192;52.002;5.956;2024-01-30T07:52:27;3.00;;;2.10;;
39044;SDS011;52192;52.002;5.956;2024-01-30T07:54:53;4.88;;;2.10;;
39044;SDS011;52192;52.002;5.956;2024-01-30T07:57:18;3.65;;;1.85;;
39044;SDS011;52192;52.002;5.956;2024-01-30T07:59:44;9.27;;;1.90;;
39044;SDS011;52192;52.002;5.956;2024-01-30T08:02:11;3.80;;;2.10;;
39044;SDS011;52192;52.002;5.956;2024-01-30T08:04:38;3.47;;;1.75;;
39044;SDS011;52192;52.002;5.956;2024-01-30T08:07:04;2.75;;;2.03;;
39044;SDS011;52192;52.002;5.956;2024-01-30T08:09:30;3.22;;;1.52;;
39044;SDS011;52192;52.002;5.956;2024-01-30T08:11:55;2.20;;;1.50;;
39044;SDS011;52192;52.002;5.956;2024-01-30T08:14:21;2.30;;;1.23;;
39044;SDS011;52192;52.002;5.956;2024-01-30T08:16:47;3.13;;;1.85;;
39044;SDS011;52192;52.002;5.956;2024-01-30T08:19:13;3.28;;;1.67;;
39044;SDS011;52192;52.002;5.956;2024-01-30T08:21:40;3.65;;;1.50;;
39044;SDS011;52192;52.002;5.956;2024-01-30T08:24:05;3.40;;;1.30;;
39044;SDS011;52192;52.002;5.956;2024-01-30T08:26:32;3.17;;;1.52;;
39044;SDS011;52192;52.002;5.956;2024-01-30T08:28:58;4.60;;;1.83;;
39044;SDS011;52192;52.002;5.956;2024-01-30T08:31:23;3.85;;;1.95;;
39044;SDS011;52192;52.002;5.956;2024-01-30T08:33:49;3.20;;;1.45;;
39044;SDS011;52192;52.002;5.956;2024-01-30T08:36:15;4.72;;;1.65;;
39044;SDS011;52192;52.002;5.956;2024-01-30T08:38:41;2.80;;;1.90;;
39044;SDS011;52192;52.002;5.956;2024-01-30T08:41:07;5.88;;;1.90;;
39044;SDS011;52192;52.002;5.956;2024-01-30T08:43:33;3.20;;;1.38;;
39044;SDS011;52192;52.002;5.956;2024-01-30T08:45:59;4.80;;;1.88;;
39044;SDS011;52192;52.002;5.956;2024-01-30T08:48:26;3.00;;;1.70;;
39044;SDS011;52192;52.002;5.956;2024-01-30T08:50:52;2.10;;;1.20;;
39044;SDS011;52192;52.002;5.956;2024-01-30T08:53:17;1.95;;;1.50;;
39044;SDS011;52192;52.002;5.956;2024-01-30T08:55:43;2.45;;;1.77;;
39044;SDS011;52192;52.002;5.956;2024-01-30T08:58:09;3.25;;;1.45;;
39044;SDS011;52192;52.002;5.956;2024-01-30T09:00:35;3.38;;;1.65;;
39044;SDS011;52192;52.002;5.956;2024-01-30T09:03:01;3.63;;;1.58;;
39044;SDS011;52192;52.002;5.956;2024-01-30T09:05:27;2.97;;;1.75;;
39044;SDS011;52192;52.002;5.956;2024-01-30T09:07:52;2.78;;;2.17;;
39044;SDS011;52192;52.002;5.956;2024-01-30T09:10:18;2.55;;;1.55;;
39044;SDS011;52192;52.002;5.956;2024-01-30T09:12:44;3.10;;;1.98;;
39044;SDS011;52192;52.002;5.956;2024-01-30T09:15:10;3.08;;;2.53;;
39044;SDS011;52192;52.002;5.956;2024-01-30T09:17:35;2.95;;;1.70;;
39044;SDS011;52192;52.002;5.956;2024-01-30T09:20:01;5.53;;;2.20;;
39044;SDS011;52192;52.002;5.956;2024-01-30T09:22:27;2.10;;;1.35;;
39044;SDS011;52192;52.002;5.956;2024-01-30T09:24:53;6.13;;;2.97;;
39044;SDS011;52192;52.002;5.956;2024-01-30T09:27:18;3.33;;;1.92;;
39044;SDS011;52192;52.002;5.956;2024-01-30T09:29:45;4.00;;;1.90;;
39044;SDS011;52192;52.002;5.956;2024-01-30T09:32:10;2.70;;;2.30;;
39044;SDS011;52192;52.002;5.956;2024-01-30T09:34:36;4.25;;;2.40;;
39044;SDS011;52192;52.002;5.956;2024-01-30T09:37:02;7.93;;;2.38;;
39044;SDS011;52192;52.002;5.956;2024-01-30T09:39:28;3.88;;;2.78;;
39044;SDS011;52192;52.002;5.956;2024-01-30T09:44:49;3.30;;;2.60;;
39044;SDS011;52192;52.002;5.956;2024-01-30T09:47:17;3.42;;;2.10;;
39044;SDS011;52192;52.002;5.956;2024-01-30T09:49:43;4.57;;;2.58;;
39044;SDS011;52192;52.002;5.956;2024-01-30T09:52:09;3.42;;;2.58;;
39044;SDS011;52192;52.002;5.956;2024-01-30T09:54:35;6.60;;;2.53;;
39044;SDS011;52192;52.002;5.956;2024-01-30T09:57:03;3.75;;;2.58;;
39044;SDS011;52192;52.002;5.956;2024-01-30T09:59:29;5.47;;;2.75;;
39044;SDS011;52192;52.002;5.956;2024-01-30T10:01:54;6.07;;;2.85;;
39044;SDS011;52192;52.002;5.956;2024-01-30T10:04:21;4.38;;;2.83;;
39044;SDS011;52192;52.002;5.956;2024-01-30T10:06:47;16.77;;;2.83;;
39044;SDS011;52192;52.002;5.956;2024-01-30T10:09:13;4.00;;;2.45;;
39044;SDS011;52192;52.002;5.956;2024-01-30T10:11:38;4.40;;;2.28;;
39044;SDS011;52192;52.002;5.956;2024-01-30T10:14:04;3.75;;;2.63;;
39044;SDS011;52192;52.002;5.956;2024-01-30T10:16:30;3.15;;;1.83;;
39044;SDS011;52192;52.002;5.956;2024-01-30T10:18:55;4.65;;;2.50;;
39044;SDS011;52192;52.002;5.956;2024-01-30T10:21:21;3.85;;;2.08;;
39044;SDS011;52192;52.002;5.956;2024-01-30T10:23:47;10.63;;;2.88;;
39044;SDS011;52192;52.002;5.956;2024-01-30T10:26:13;5.05;;;2.88;;
39044;SDS011;52192;52.002;5.956;2024-01-30T10:28:42;4.97;;;2.63;;
39044;SDS011;52192;52.002;5.956;2024-01-30T10:31:08;3.63;;;2.40;;
39044;SDS011;52192;52.002;5.956;2024-01-30T10:33:34;3.92;;;2.40;;
39044;SDS011;52192;52.002;5.956;2024-01-30T10:36:03;4.95;;;3.05;;
39044;SDS011;52192;52.002;5.956;2024-01-30T10:38:30;3.83;;;2.72;;
39044;SDS011;52192;52.002;5.956;2024-01-30T10:40:57;4.28;;;2.67;;
39044;SDS011;52192;52.002;5.956;2024-01-30T10:43:26;2.75;;;2.22;;
39044;SDS011;52192;52.002;5.956;2024-01-30T10:46:10;3.72;;;1.80;;
39044;SDS011;52192;52.002;5.956;2024-01-30T10:48:42;4.32;;;2.25;;
39044;SDS011;52192;52.002;5.956;2024-01-30T10:51:11;5.63;;;3.25;;
39044;SDS011;52192;52.002;5.956;2024-01-30T10:53:39;4.78;;;2.47;;
39044;SDS011;52192;52.002;5.956;2024-01-30T10:56:06;3.88;;;1.95;;
39044;SDS011;52192;52.002;5.956;2024-01-30T10:58:33;3.28;;;2.50;;
39044;SDS011;52192;52.002;5.956;2024-01-30T11:00:59;6.68;;;2.60;;
39044;SDS011;52192;52.002;5.956;2024-01-30T11:03:25;8.00;;;2.72;;
39044;SDS011;52192;52.002;5.956;2024-01-30T11:05:51;5.00;;;2.85;;
39044;SDS011;52192;52.002;5.956;2024-01-30T11:08:24;4.90;;;2.83;;
39044;SDS011;52192;52.002;5.956;2024-01-30T11:10:54;5.18;;;2.30;;
39044;SDS011;52192;52.002;5.956;2024-01-30T11:13:22;3.63;;;2.80;;
39044;SDS011;52192;52.002;5.956;2024-01-30T11:15:48;3.67;;;2.05;;
39044;SDS011;52192;52.002;5.956;2024-01-30T11:18:22;7.53;;;3.38;;
39044;SDS011;52192;52.002;5.956;2024-01-30T11:20:51;8.27;;;3.55;;
39044;SDS011;52192;52.002;5.956;2024-01-30T11:23:17;4.13;;;2.60;;
39044;SDS011;52192;52.002;5.956;2024-01-30T11:25:45;7.90;;;2.78;;
39044;SDS011;52192;52.002;5.956;2024-01-30T11:28:14;5.65;;;2.90;;
39044;SDS011;52192;52.002;5.956;2024-01-30T11:30:41;5.43;;;2.97;;
39044;SDS011;52192;52.002;5.956;2024-01-30T11:33:11;7.50;;;3.25;;
39044;SDS011;52192;52.002;5.956;2024-01-30T11:35:41;3.20;;;2.10;;
39044;SDS011;52192;52.002;5.956;2024-01-30T11:38:08;4.80;;;2.13;;
39044;SDS011;52192;52.002;5.956;2024-01-30T11:40:36;5.22;;;2.63;;
39044;SDS011;52192;52.002;5.956;2024-01-30T11:43:04;5.40;;;2.65;;
39044;SDS011;52192;52.002;5.956;2024-01-30T11:45:31;6.50;;;2.38;;
39044;SDS011;52192;52.002;5.956;2024-01-30T11:47:57;5.22;;;2.80;;
39044;SDS011;52192;52.002;5.956;2024-01-30T11:50:25;6.18;;;2.60;;
39044;SDS011;52192;52.002;5.956;2024-01-30T11:52:50;4.03;;;2.75;;
39044;SDS011;52192;52.002;5.956;2024-01-30T11:55:16;5.63;;;3.03;;
39044;SDS011;52192;52.002;5.956;2024-01-30T11:57:42;3.08;;;1.90;;
39044;SDS011;52192;52.002;5.956;2024-01-30T12:00:15;5.32;;;2.85;;
39044;SDS011;52192;52.002;5.956;2024-01-30T12:02:42;5.30;;;2.97;;
39044;SDS011;52192;52.002;5.956;2024-01-30T12:05:08;5.88;;;3.55;;
39044;SDS011;52192;52.002;5.956;2024-01-30T12:07:34;8.52;;;3.20;;
39044;SDS011;52192;52.002;5.956;2024-01-30T12:10:00;4.50;;;2.97;;
39044;SDS011;52192;52.002;5.956;2024-01-30T12:12:27;6.15;;;2.72;;
39044;SDS011;52192;52.002;5.956;2024-01-30T12:14:54;3.75;;;2.67;;
39044;SDS011;52192;52.002;5.956;2024-01-30T12:17:30;4.65;;;2.60;;
39044;SDS011;52192;52.002;5.956;2024-01-30T12:20:09;3.05;;;2.25;;
39044;SDS011;52192;52.002;5.956;2024-01-30T12:22:40;5.50;;;2.60;;
39044;SDS011;52192;52.002;5.956;2024-01-30T12:25:10;5.30;;;3.03;;
39044;SDS011;52192;52.002;5.956;2024-01-30T12:27:36;5.55;;;3.28;;
39044;SDS011;52192;52.002;5.956;2024-01-30T12:30:06;4.22;;;2.60;;
39044;SDS011;52192;52.002;5.956;2024-01-30T12:32:36;6.50;;;2.65;;
39044;SDS011;52192;52.002;5.956;2024-01-30T12:35:02;4.03;;;2.40;;
39044;SDS011;52192;52.002;5.956;2024-01-30T12:37:29;8.60;;;3.33;;
39044;SDS011;52192;52.002;5.956;2024-01-30T12:39:55;8.50;;;2.42;;
39044;SDS011;52192;52.002;5.956;2024-01-30T12:42:21;4.53;;;2.75;;
39044;SDS011;52192;52.002;5.956;2024-01-30T12:44:47;5.00;;;2.63;;
39044;SDS011;52192;52.002;5.956;2024-01-30T12:47:14;4.18;;;2.45;;
39044;SDS011;52192;52.002;5.956;2024-01-30T12:49:43;2.03;;;1.00;;
39044;SDS011;52192;52.002;5.956;2024-01-30T12:52:13;3.47;;;1.17;;
39044;SDS011;52192;52.002;5.956;2024-01-30T12:54:41;1.50;;;1.17;;
39044;SDS011;52192;52.002;5.956;2024-01-30T12:57:07;3.85;;;1.23;;
39044;SDS011;52192;52.002;5.956;2024-01-30T12:59:32;3.30;;;1.25;;
39044;SDS011;52192;52.002;5.956;2024-01-30T13:01:59;2.78;;;1.02;;
39044;SDS011;52192;52.002;5.956;2024-01-30T13:04:26;2.15;;;0.85;;
39044;SDS011;52192;52.002;5.956;2024-01-30T13:06:52;1.42;;;0.55;;
39044;SDS011;52192;52.002;5.956;2024-01-30T13:09:18;0.95;;;0.50;;
39044;SDS011;52192;52.002;5.956;2024-01-30T13:11:44;1.40;;;0.73;;
39044;SDS011;52192;52.002;5.956;2024-01-30T13:14:10;0.75;;;0.50;;
39044;SDS011;52192;52.002;5.956;2024-01-30T13:16:36;0.60;;;0.52;;
39044;SDS011;52192;52.002;5.956;2024-01-30T13:19:01;2.72;;;0.52;;
39044;SDS011;52192;52.002;5.956;2024-01-30T13:21:27;2.83;;;0.50;;
39044;SDS011;52192;52.002;5.956;2024-01-30T13:23:53;0.70;;;0.30;;
39044;SDS011;52192;52.002;5.956;2024-01-30T13:26:20;1.20;;;1.02;;
39044;SDS011;52192;52.002;5.956;2024-01-30T13:28:46;0.60;;;0.35;;
39044;SDS011;52192;52.002;5.956;2024-01-30T13:31:12;2.92;;;0.50;;
39044;SDS011;52192;52.002;5.956;2024-01-30T13:33:39;0.50;;;0.50;;
39044;SDS011;52192;52.002;5.956;2024-01-30T13:36:06;0.47;;;0.47;;
39044;SDS011;52192;52.002;5.956;2024-01-30T13:38:33;1.67;;;0.82;;
39044;SDS011;52192;52.002;5.956;2024-01-30T13:40:59;0.93;;;0.73;;
39044;SDS011;52192;52.002;5.956;2024-01-30T13:43:25;0.43;;;0.20;;
39044;SDS011;52192;52.002;5.956;2024-01-30T13:45:51;0.40;;;0.40;;
39044;SDS011;52192;52.002;5.956;2024-01-30T13:48:17;0.77;;;0.30;;
39044;SDS011;52192;52.002;5.956;2024-01-30T13:50:43;1.38;;;0.90;;
39044;SDS011;52192;52.002;5.956;2024-01-30T13:53:09;0.70;;;0.60;;
39044;SDS011;52192;52.002;5.956;2024-01-30T13:55:35;4.55;;;0.95;;
39044;SDS011;52192;52.002;5.956;2024-01-30T13:58:01;1.42;;;1.10;;
39044;SDS011;52192;52.002;5.956;2024-01-30T14:00:27;2.40;;;0.70;;
39044;SDS011;52192;52.002;5.956;2024-01-30T14:02:52;1.00;;;0.90;;
39044;SDS011;52192;52.002;5.956;2024-01-30T14:05:22;3.70;;;1.00;;
39044;SDS011;52192;52.002;5.956;2024-01-30T14:07:48;1.15;;;1.05;;
39044;SDS011;52192;52.002;5.956;2024-01-30T14:10:15;2.42;;;1.50;;
39044;SDS011;52192;52.002;5.956;2024-01-30T14:12:41;3.83;;;1.83;;
39044;SDS011;52192;52.002;5.956;2024-01-30T14:15:08;3.42;;;1.10;;
39044;SDS011;52192;52.002;5.956;2024-01-30T14:17:35;1.52;;;1.00;;
39044;SDS011;52192;52.002;5.956;2024-01-30T14:20:01;2.65;;;1.40;;
39044;SDS011;52192;52.002;5.956;2024-01-30T14:22:29;2.60;;;0.98;;
39044;SDS011;52192;52.002;5.956;2024-01-30T14:24:55;3.67;;;1.23;;
39044;SDS011;52192;52.002;5.956;2024-01-30T14:27:21;2.88;;;1.67;;
39044;SDS011;52192;52.002;5.956;2024-01-30T14:29:47;3.20;;;0.95;;
39044;SDS011;52192;52.002;5.956;2024-01-30T14:32:13;2.25;;;1.35;;
39044;SDS011;52192;52.002;5.956;2024-01-30T14:34:38;6.63;;;1.48;;
39044;SDS011;52192;52.002;5.956;2024-01-30T14:37:04;3.40;;;1.40;;
39044;SDS011;52192;52.002;5.956;2024-01-30T14:39:30;2.55;;;1.42;;
39044;SDS011;52192;52.002;5.956;2024-01-30T14:41:56;2.05;;;1.30;;
39044;SDS011;52192;52.002;5.956;2024-01-30T14:44:22;1.65;;;1.20;;
39044;SDS011;52192;52.002;5.956;2024-01-30T14:46:48;2.55;;;1.35;;